Home > Products > Valid Products > TAF

000
FTUS46 KSEW 272329
TAFOLM
TAF
KOLM 272329Z 2800/2824 24013G18KT P6SM VCSH SCT035 BKN070
     FM280400 24007KT P6SM OVC035
     FM280900 19006KT P6SM OVC025
     FM281400 20006KT P6SM -RA BKN025 OVC040
     FM282000 21012G17KT P6SM VCSH SCT030 BKN050=



000
FTUS46 KSEW 272329
TAFBFI
TAF
KBFI 272329Z 2800/2824 18005KT P6SM VCSH SCT040 BKN080 BKN250
     FM280300 18005KT P6SM BKN040 BKN080
     FM280800 16006KT P6SM OVC030
     FM281000 16006KT P6SM OVC025 PROB30 2815/2820 -RA
     FM282200 18010G18KT P6SM VCSH SCT030 BKN050=



000
FTUS46 KSEW 272329
TAFBLI
TAF
KBLI 272329Z 2800/2824 17011G17KT P6SM BKN045 BKN060 OVC080
     FM280500 15008KT P6SM OVC035
     FM281000 16012KT P6SM BKN030 OVC050 PROB30 2810/2815 -RA
     FM281500 15015G22KT 5SM -RA BR BKN030 OVC050
     FM282200 17014KT P6SM VCSH BKN030 BKN050=



000
FTUS46 KSEW 272329
TAFSEA
TAF
KSEA 272329Z 2800/2906 25010G16KT P6SM VCSH SCT040 BKN080 BKN250
     FM280300 24009KT P6SM BKN040 BKN080
     FM280800 22008KT P6SM BKN030 OVC080
     FM281000 19008KT P6SM OVC022 PROB30 2815/2820 -RA
     FM282200 19012G20KT P6SM VCSH SCT025 BKN050=



000
FTUS46 KSEW 272329
TAFPAE
TAF
KPAE 272329Z 2800/2824 35008KT P6SM VCSH SCT035 BKN070 BKN080
     FM280800 12005KT P6SM OVC030
     FM281000 15006KT P6SM OVC020 PROB30 2814/2820 -RA
     FM282100 18015G25KT P6SM VCSH SCT025 BKN040=



000
FTUS46 KSEW 272329
TAFHQM
TAF
KHQM 272329Z 2800/2824 25012KT 6SM HZ VCSH BKN050 BKN080
     FM280400 26006KT P6SM OVC040
     FM280900 17004KT P6SM -RA OVC030
     FM281300 15012KT 4SM -RA BR OVC020
     FM281800 20012KT 5SM -SHRA BKN025 BKN050=



000
FTUS46 KSEW 272329
TAFCLM
TAF
KCLM 272329Z 2800/2824 31009KT P6SM SCT035 SCT050
     FM280600 27006KT P6SM BKN035
     FM281200 VRB03KT 6SM -RA BKN025 OVC050
     FM282000 33006KT P6SM VCSH SCT030 BKN050=



000
FTUS46 KSEW 271720
TAFCLM
TAF
KCLM 271720Z 2718/2818 32009KT P6SM FEW050 BKN080
     FM272100 31014G21KT P6SM BKN070
     FM280600 29010KT P6SM BKN035
     FM281200 VRB03KT P6SM -RA BKN025 OVC050=



000
FTUS46 KSEW 271720
TAFBLI
TAF
KBLI 271720Z 2718/2818 15010KT P6SM FEW015 BKN060 OVC100
     FM272000 17010KT P6SM BKN035
     FM280500 15008KT P6SM OVC035
     FM281200 16012KT P6SM -RA BKN030 OVC050=



000
FTUS46 KSEW 271720
TAFSEA
TAF
KSEA 271720Z 2718/2824 23005KT P6SM SCT016 BKN030
     FM271900 23009KT P6SM BKN035 BKN070
     FM280600 20009KT P6SM OVC030
     FM281000 19008KT P6SM OVC022 PROB30 2815/2820 -RA
     FM282000 19012G20KT P6SM SCT025 BKN050=



000
FTUS46 KSEW 271720
TAFPAE
TAF
KPAE 271720Z 2718/2818 15008KT P6SM VCSH SCT018 BKN040 OVC060
     FM272300 34006KT P6SM VCSH BKN035
     FM280000 36006KT P6SM VCSH BKN035
     FM280600 12005KT P6SM OVC030
     FM280900 15006KT P6SM OVC020 PROB30 2812/2818 -RA=



000
FTUS46 KSEW 271720
TAFOLM
TAF
KOLM 271720Z 2718/2818 26010KT P6SM FEW035
     FM272100 23010G16KT P6SM VCSH BKN040
     FM280500 23005KT P6SM OVC030
     FM280900 19006KT P6SM OVC025
     FM281400 20006KT P6SM -RA BKN025 OVC040=



000
FTUS46 KSEW 271720
TAFBFI
TAF
KBFI 271720Z 2718/2818 20005KT P6SM SCT023 BKN035 BKN060
     FM272100 19010KT P6SM BKN040 BKN060
     FM280500 16006KT P6SM OVC030
     FM281000 16006KT P6SM OVC025 PROB30 2815/2818 -RA=



000
FTUS46 KSEW 271720
TAFHQM
TAF
KHQM 271720Z 2718/2818 VRB04KT 6SM HZ OVC060
     FM272000 24013KT 5SM -SHRA BKN040 OVC060
     FM280400 26006KT P6SM OVC040
     FM280900 17006KT P6SM -RA OVC030
     FM281300 15012KT 4SM -RA BR OVC025=



000
FTUS46 KSEW 271421 AAA
TAFPAE
TAF AMD
KPAE 271421Z 2714/2812 16005KT P6SM VCSH SCT045 BKN070
      TEMPO 2715/2719 P6SM BKN035 OVC045
     FM271900 26010KT P6SM VCSH BKN035
     FM272200 34006KT P6SM VCSH BKN035
     FM280000 36006KT P6SM VCSH BKN035
     FM280600 12005KT P6SM OVC030
     FM280900 15006KT P6SM OVC020=



000
FTUS46 KSEW 271418 AAA
TAFBFI
TAF AMD
KBFI 271418Z 2714/2812 16006KT P6SM VCSH OVC025
      TEMPO 2714/2718 BKN018 BKN025
     FM271800 16006KT P6SM VCSH OVC035
     FM272100 19010KT P6SM VCSH BKN040
     FM280500 16006KT P6SM OVC030=



000
FTUS46 KSEW 270913 AAA
TAFSEA
TAF AMD
KSEA 270913Z 2709/2812 19010KT P6SM VCSH BKN022 OVC035
     FM271200 19010KT P6SM VCSH OVC022
     FM271800 20011KT P6SM VCSH OVC035
     FM272100 21012KT P6SM VCSH BKN035
     FM280600 20009KT P6SM OVC030=



000
FTUS46 KSEW 270520
TAFSEA
TAF
KSEA 270520Z 2706/2812 23010KT P6SM VCSH BKN030 OVC060
     FM270800 20010KT P6SM VCSH OVC030
     FM271100 19010KT P6SM VCSH OVC025
     FM271500 20011KT P6SM VCSH OVC035
     FM272100 21012KT P6SM VCSH BKN035
     FM280600 20009KT P6SM OVC030=



000
FTUS46 KSEW 270520
TAFBFI
TAF
KBFI 270520Z 2706/2806 20008KT P6SM VCSH OVC045
      TEMPO 2706/2708 36005KT P6SM -SHRA BKN030 OVC040
     FM270800 17008KT P6SM VCSH BKN030 OVC040
     FM272100 20010KT P6SM VCSH BKN040=



000
FTUS46 KSEW 270124 AAA
TAFPAE
TAF AMD
KPAE 270124Z 2701/2724 36007KT P6SM VCSH SCT020 OVC035
      TEMPO 2701/2705 4SM -SHRA BR BKN020 OVC035
     FM270700 35009KT P6SM VCSH SCT020 OVC035
     FM270900 22006KT P6SM VCSH OVC030
     FM271200 19006KT P6SM VCSH OVC025
     FM271700 22007KT P6SM VCSH OVC030
     FM272100 26007KT P6SM VCSH BKN035=



000
FTUS46 KSEW 260812 AAB
TAFCLM
TAF AMD
KCLM 260812Z 2608/2706 27009KT P6SM SCT025
      TEMPO 2609/2612 BKN025
     FM261200 28009KT P6SM OVC025
     FM262000 29014G22KT P6SM VCSH BKN030 BKN050
     FM270000 30015G25KT P6SM -SHRA OVC035=



000
FTUS46 KSEW 260723 AAA
TAFOLM
TAF AMD
KOLM 260723Z 2607/2706 20006KT P6SM SCT025
      TEMPO 2608/2610 OVC025
     FM261000 20010KT P6SM OVC018
     FM262100 23012G20KT P6SM BKN025 BKN040
     FM270000 24012G22KT P6SM VCSH BKN025 OVC040=



000
FTUS46 KSEW 252334
TAFOLM
TAF
KOLM 252334Z 2600/2624 24009KT P6SM BKN026
     FM260600 21009G18KT P6SM OVC015=



000
FTUS46 KSEW 252334
TAFCLM
TAF
KCLM 252334Z 2600/2624 30012G19KT P6SM FEW070
     FM260700 29013G20KT P6SM OVC015=



000
FTUS46 KSEW 252334
TAFPAE
TAF
KPAE 252334Z 2600/2624 24009KT P6SM OVC035
     FM260200 27007KT P6SM SCT030 BKN060
     FM260400 28006KT P6SM BKN030
     FM260600 19008KT P6SM OVC015=



000
FTUS46 KSEW 252334
TAFBLI
TAF
KBLI 252334Z 2600/2624 17012KT P6SM SKC
     FM260600 17012KT P6SM OVC035
     FM261000 17014G20KT P6SM OVC020
     FM262300 17012G18KT P6SM OVC035=



000
FTUS46 KSEW 252334
TAFHQM
TAF
KHQM 252334Z 2600/2624 25012KT P6SM OVC035
     FM260600 26007KT P6SM OVC020
     FM261900 26008KT P6SM OVC035=



000
FTUS46 KSEW 252334
TAFBFI
TAF
KBFI 252334Z 2600/2624 23008KT P6SM BKN035
     FM260200 29008KT P6SM SCT035 BKN060
     FM260600 17007KT P6SM OVC035
     FM260800 18009KT P6SM OVC015
     FM262200 19012G18KT P6SM OVC040=



000
FTUS46 KSEW 252334
TAFSEA
TAF
KSEA 252334Z 2600/2706 23013KT P6SM BKN030
     FM260200 27010KT P6SM SCT030 BKN060
     FM260600 21011G21KT P6SM OVC015
     FM262200 21016G23KT P6SM OVC035
     FM270000 21017G24KT P6SM BKN050=



000
FTUS46 KSEW 252101 AAA
TAFSEA
TAF AMD
KSEA 252101Z 2521/2624 23008KT P6SM BKN030
     FM252300 23007KT P6SM SCT030 BKN060
     FM260600 20010KT P6SM OVC015=



000
FTUS46 KSEW 251729
TAFBFI
TAF
KBFI 251729Z 2518/2618 15005KT P6SM SCT013 OVC030
     FM252300 20006KT P6SM SCT030 BKN060
     FM260600 17007KT P6SM OVC019=



000
FTUS46 KSEW 251729
TAFPAE
TAF
KPAE 251729Z 2518/2618 VRB03KT P6SM SCT014 OVC025
     FM252200 29006KT P6SM SCT030 BKN060
     FM260700 17007KT P6SM OVC012=



000
FTUS46 KSEW 251729
TAFCLM
TAF
KCLM 251729Z 2518/2618 34008KT P6SM BKN015
     FM252000 30014G20KT P6SM SCT030
     FM260700 28011G21KT P6SM OVC015=



000
FTUS46 KSEW 251729
TAFOLM
TAF
KOLM 251729Z 2518/2618 VRB03KT P6SM BKN018 OVC070
     FM252100 24006KT P6SM SCT030 BKN060
     FM260600 20007KT P6SM OVC012=



000
FTUS46 KSEW 251729
TAFHQM
TAF
KHQM 251729Z 2518/2618 29008KT P6SM OVC021
     FM252000 25013G19KT P6SM BKN030
     FM260600 26008KT P6SM OVC015=



000
FTUS46 KSEW 251729
TAFBLI
TAF
KBLI 251729Z 2518/2618 18009KT P6SM OVC060
     FM252000 17009KT P6SM SCT030 BKN060
     FM260600 17011KT P6SM SCT025 BKN040
     FM261100 17011G17KT P6SM BKN025
     FM261700 17013G19KT P6SM SCT025 BKN040=



000
FTUS46 KSEW 251729
TAFSEA
TAF
KSEA 251729Z 2518/2624 20009KT P6SM SCT010 OVC025
     FM252300 23007KT P6SM SCT030 BKN060
     FM260600 20010KT P6SM OVC015=



000
FTUS46 KSEW 251120
TAFBFI
TAF
KBFI 251120Z 2512/2612 VRB03KT P6SM BKN020
     FM252000 20006KT P6SM SCT030 BKN050
     FM260500 17007KT P6SM SCT020 BKN035=



000
FTUS46 KSEW 251120
TAFBLI
TAF
KBLI 251120Z 2512/2612 16004KT P6SM SKC
     FM252000 17010KT P6SM SCT025 BKN040
     FM260500 17012KT P6SM SCT025 OVC040=



000
FTUS46 KSEW 251120
TAFHQM
TAF
KHQM 251120Z 2512/2612 31006KT P6SM OVC025
     FM251800 24012KT P6SM BKN020 BKN040
     FM252200 24014G22KT P6SM BKN030 BKN040
     FM260400 26008KT P6SM SCT015 OVC030=



000
FTUS46 KSEW 251120
TAFPAE
TAF
KPAE 251120Z 2512/2612 VRB03KT P6SM OVC025
     FM252000 24007KT P6SM SCT025 BKN040
     FM260300 33006KT P6SM SCT025 BKN040
     FM260900 15007KT P6SM BKN020=



000
FTUS46 KSEW 251120
TAFOLM
TAF
KOLM 251120Z 2512/2612 VRB03KT P6SM BKN050
     FM252000 23008KT P6SM SCT025 BKN050
     FM260900 20006KT P6SM BKN020 OVC040=



000
FTUS46 KSEW 251120
TAFCLM
TAF
KCLM 251120Z 2512/2612 27008KT P6SM SKC
     FM251600 31011KT P6SM SCT040
     FM252300 29014G23KT P6SM BKN040
     FM260800 27011KT P6SM BKN020 OVC040=



000
FTUS46 KSEW 251120
TAFSEA
TAF
KSEA 251120Z 2512/2618 VRB03KT P6SM SCT020 OVC040
     FM252000 20008KT P6SM SCT040 BKN060
     FM260600 20009KT P6SM SCT025 BKN040=



    US Dept of Commerce
    National Oceanic and Atmospheric Administration
    National Weather Service
    1325 East West Highway
    Silver Spring, MD 20910
    Page Author: NWS Internet Services Team
Disclaimer
Information Quality
Credits
Glossary
Privacy Policy
Freedom of Information Act (FOIA)
About Us
Career Opportunities